createdAt,value
2022-12-16T00:02:28.763Z,26.80
2022-12-16T00:07:34.590Z,31.83
2022-12-16T00:12:38.427Z,27.60
2022-12-16T00:17:42.312Z,27.70
2022-12-16T00:22:47.657Z,25.90
2022-12-16T00:27:54.878Z,23.30
2022-12-16T00:33:01.332Z,29.42
2022-12-16T00:38:06.690Z,28.30
2022-12-16T00:43:12.099Z,26.50
2022-12-16T00:48:16.490Z,27.17
2022-12-16T00:53:21.783Z,27.85
2022-12-16T00:58:25.728Z,29.45
2022-12-16T01:03:29.945Z,29.52
2022-12-16T01:08:35.436Z,26.88
2022-12-16T01:13:39.315Z,26.65
2022-12-16T01:18:43.376Z,24.67
2022-12-16T01:23:50.050Z,26.13
2022-12-16T01:28:55.114Z,24.80
2022-12-16T01:33:59.309Z,24.25
2022-12-16T01:39:05.425Z,24.77
2022-12-16T01:44:15.570Z,23.42
2022-12-16T01:49:25.333Z,23.58
2022-12-16T01:54:37.044Z,21.98
2022-12-16T01:59:43.913Z,22.35
2022-12-16T02:05:01.682Z,25.27
2022-12-16T02:10:08.183Z,25.40
2022-12-16T02:15:28.884Z,21.60
2022-12-16T02:21:03.679Z,24.15
2022-12-16T02:26:33.731Z,25.65
2022-12-16T02:31:47.151Z,24.33
2022-12-16T02:37:05.131Z,22.13
2022-12-16T02:42:17.798Z,21.58
2022-12-16T02:47:23.096Z,20.13
2022-12-16T02:52:29.060Z,22.77
2022-12-16T02:58:11.143Z,21.23
2022-12-16T03:03:25.464Z,22.40
2022-12-16T03:08:34.120Z,21.35
2022-12-16T03:13:42.416Z,20.40
2022-12-16T03:18:52.572Z,22.75
2022-12-16T03:24:02.147Z,19.67
2022-12-16T03:29:10.973Z,19.88
2022-12-16T03:34:21.219Z,18.48
2022-12-16T03:39:27.228Z,15.40
2022-12-16T03:44:32.303Z,17.00
2022-12-16T03:49:38.297Z,16.02
2022-12-16T03:54:42.227Z,17.63
2022-12-16T03:59:46.224Z,17.33
2022-12-16T04:04:51.603Z,17.17
2022-12-16T04:09:55.435Z,15.55
2022-12-16T04:15:17.020Z,15.27
2022-12-16T04:20:46.708Z,13.40
2022-12-16T04:25:51.529Z,15.10
2022-12-16T04:30:55.795Z,14.18
2022-12-16T04:36:18.815Z,13.38
2022-12-16T04:41:40.153Z,16.30
2022-12-16T04:47:02.026Z,14.27
2022-12-16T04:52:24.721Z,14.13
2022-12-16T04:57:51.277Z,14.98
2022-12-16T05:03:12.537Z,15.10
2022-12-16T05:08:35.617Z,15.60
2022-12-16T05:13:57.064Z,17.08
2022-12-16T05:19:18.343Z,15.45
2022-12-16T05:24:41.404Z,14.25
2022-12-16T05:30:02.895Z,14.60
2022-12-16T05:35:25.102Z,15.40
2022-12-16T05:40:47.808Z,17.08
2022-12-16T05:46:09.295Z,16.55
2022-12-16T05:51:30.820Z,17.33
2022-12-16T05:56:53.672Z,15.55
2022-12-16T06:02:15.404Z,17.40
2022-12-16T06:07:36.900Z,17.08
2022-12-16T06:12:59.568Z,15.60
2022-12-16T06:18:20.779Z,15.90
2022-12-16T06:23:42.089Z,14.75
2022-12-16T06:29:04.606Z,15.13
2022-12-16T06:34:25.583Z,15.70
2022-12-16T06:39:51.416Z,16.98
2022-12-16T06:45:15.521Z,17.10
2022-12-16T06:50:39.440Z,17.98
2022-12-16T07:01:25.293Z,20.58
2022-12-16T07:06:47.066Z,23.20
2022-12-16T07:12:08.147Z,22.42
2022-12-16T07:17:30.891Z,24.23
2022-12-16T07:22:59.974Z,22.67
2022-12-16T07:28:26.565Z,24.20
2022-12-16T07:33:49.830Z,20.88
2022-12-16T07:39:20.307Z,21.73
2022-12-16T07:44:41.558Z,22.17
2022-12-16T07:50:04.570Z,21.17
2022-12-16T07:55:26.988Z,22.23
2022-12-16T08:00:48.181Z,23.55
2022-12-16T08:06:10.973Z,21.17
2022-12-16T08:11:32.639Z,27.02
2022-12-16T08:16:53.927Z,22.50
2022-12-16T08:22:19.286Z,19.73
2022-12-16T08:27:40.693Z,22.48
2022-12-16T08:33:10.718Z,22.77
2022-12-16T08:38:37.855Z,20.75
2022-12-16T08:43:59.692Z,19.23
2022-12-16T08:49:21.750Z,18.50
2022-12-16T08:54:44.368Z,18.35
2022-12-16T09:00:06.163Z,15.32
2022-12-16T09:05:28.034Z,17.45
2022-12-16T09:10:50.614Z,16.52
2022-12-16T09:16:17.590Z,17.48
2022-12-16T09:21:40.630Z,17.35
2022-12-16T09:27:03.438Z,19.92
2022-12-16T09:32:39.770Z,22.02
2022-12-16T09:38:04.983Z,23.08
2022-12-16T09:43:45.625Z,21.57
2022-12-16T09:49:14.897Z,20.10
2022-12-16T09:54:38.766Z,18.13
2022-12-16T10:00:12.591Z,18.38
2022-12-16T10:05:41.682Z,17.90
2022-12-16T10:11:13.365Z,20.33
2022-12-16T10:16:45.548Z,22.75
2022-12-16T10:22:14.884Z,23.73
2022-12-16T10:27:42.010Z,21.52
2022-12-16T10:33:06.989Z,17.58
2022-12-16T10:38:39.567Z,17.50
2022-12-16T10:44:06.530Z,24.33
2022-12-16T10:49:33.628Z,22.90
2022-12-16T10:55:01.334Z,19.70
2022-12-16T11:00:31.366Z,21.75
2022-12-16T11:05:54.322Z,35.08
2022-12-16T11:11:31.163Z,24.45
2022-12-16T11:17:07.452Z,23.35
2022-12-16T11:22:45.349Z,23.77
2022-12-16T11:28:07.149Z,20.20
2022-12-16T11:33:42.518Z,20.42
2022-12-16T11:39:08.076Z,20.45
2022-12-16T11:44:37.455Z,30.20
2022-12-16T11:49:59.150Z,18.35
2022-12-16T11:56:03.724Z,19.92
2022-12-16T12:01:21.710Z,19.48
2022-12-16T12:06:51.240Z,18.98
2022-12-16T12:12:33.256Z,21.20
2022-12-16T12:18:03.242Z,21.08
2022-12-16T12:23:26.701Z,22.30
2022-12-16T12:29:05.753Z,20.63
2022-12-16T12:34:37.646Z,21.58
2022-12-16T12:40:10.510Z,21.92
2022-12-16T12:46:02.803Z,23.00
2022-12-16T12:51:30.718Z,23.15
2022-12-16T12:57:06.089Z,24.45
2022-12-16T13:02:34.684Z,24.67
2022-12-16T13:07:56.238Z,27.77
2022-12-16T13:13:47.482Z,28.02
2022-12-16T13:19:53.717Z,28.75
2022-12-16T13:25:29.351Z,28.52
2022-12-16T13:30:52.693Z,29.63
2022-12-16T13:36:18.682Z,30.08
2022-12-16T13:42:16.362Z,29.83
2022-12-16T13:47:51.200Z,29.05
2022-12-16T13:53:18.938Z,37.35
2022-12-16T13:58:53.902Z,33.22
2022-12-16T14:04:19.036Z,48.88
2022-12-16T14:09:51.098Z,43.78
2022-12-16T14:15:19.818Z,48.58
2022-12-16T14:20:48.616Z,45.58
2022-12-16T14:26:16.182Z,57.38
2022-12-16T14:31:41.503Z,56.00
2022-12-16T14:37:04.171Z,53.90
2022-12-16T14:42:38.306Z,51.05
2022-12-16T14:48:00.104Z,38.35
2022-12-16T14:53:37.703Z,36.88
2022-12-16T14:59:00.900Z,37.17
2022-12-16T15:04:27.635Z,37.08
2022-12-16T15:09:53.299Z,38.45
2022-12-16T15:15:20.073Z,30.25
2022-12-16T15:20:45.280Z,33.05
2022-12-16T15:26:14.619Z,32.33
2022-12-16T15:31:44.241Z,32.28
2022-12-16T15:37:03.391Z,30.45
2022-12-16T15:42:36.792Z,29.30
2022-12-16T15:47:59.453Z,28.20
2022-12-16T15:53:35.058Z,31.25
2022-12-16T15:58:56.929Z,30.00
2022-12-16T16:04:20.203Z,30.60
2022-12-16T16:09:46.036Z,28.88
2022-12-16T16:15:07.569Z,25.93
2022-12-16T16:20:33.878Z,25.17
2022-12-16T16:26:00.526Z,28.17
2022-12-16T16:31:28.498Z,25.02
2022-12-16T16:36:51.828Z,27.27
2022-12-16T16:42:14.194Z,30.10
2022-12-16T16:47:36.751Z,25.17
2022-12-16T16:52:59.380Z,24.45
2022-12-16T16:58:25.277Z,27.08
2022-12-16T17:03:58.614Z,35.10
2022-12-16T17:09:22.006Z,41.85
2022-12-16T17:14:43.762Z,27.38
2022-12-16T17:20:05.648Z,24.33
2022-12-16T17:25:29.125Z,25.15
2022-12-16T17:30:50.692Z,23.40
2022-12-16T17:36:13.059Z,26.77
2022-12-16T17:41:35.837Z,26.35
2022-12-16T17:46:57.744Z,24.30
2022-12-16T17:52:19.760Z,25.50
2022-12-16T17:57:42.705Z,27.65
2022-12-16T18:03:04.640Z,31.13
2022-12-16T18:08:26.995Z,26.17
2022-12-16T18:13:49.933Z,23.75
2022-12-16T18:19:11.986Z,25.35
2022-12-16T18:24:33.885Z,23.63
2022-12-16T18:29:58.845Z,25.40
2022-12-16T18:35:21.120Z,24.27
2022-12-16T18:40:42.911Z,27.90
2022-12-16T18:46:11.355Z,30.20
2022-12-16T18:51:33.078Z,34.95
2022-12-16T18:56:54.949Z,28.58
2022-12-16T19:02:17.999Z,25.08
2022-12-16T19:07:39.912Z,28.77
2022-12-16T19:13:01.085Z,29.25
2022-12-16T19:18:23.812Z,25.88
2022-12-16T19:23:45.708Z,22.05
2022-12-16T19:29:07.450Z,25.60
2022-12-16T19:34:30.912Z,26.33
2022-12-16T19:39:53.842Z,24.95
2022-12-16T19:45:15.388Z,28.27
2022-12-16T19:50:46.908Z,24.17
2022-12-16T19:56:13.799Z,23.70
2022-12-16T20:01:35.496Z,17.75
2022-12-16T20:06:58.277Z,19.20
2022-12-16T20:12:19.634Z,21.52
2022-12-16T20:17:41.331Z,21.02
2022-12-16T20:23:07.356Z,20.80
2022-12-16T20:28:36.211Z,19.98
2022-12-16T20:34:05.159Z,20.55
2022-12-16T20:39:29.696Z,21.52
2022-12-16T20:44:51.551Z,22.73
2022-12-16T20:50:13.636Z,19.45
2022-12-16T20:55:50.661Z,22.13
2022-12-16T21:01:20.873Z,23.88
2022-12-16T21:06:42.768Z,23.67
2022-12-16T21:12:05.685Z,22.58
2022-12-16T21:17:27.310Z,26.60
2022-12-16T21:22:49.004Z,21.92
2022-12-16T21:28:15.349Z,21.52
2022-12-16T21:33:38.712Z,29.80
2022-12-16T21:39:00.590Z,23.33
2022-12-16T21:44:28.027Z,25.02
2022-12-16T21:49:56.090Z,20.48
2022-12-16T21:55:28.623Z,23.38
2022-12-16T22:01:13.023Z,25.02
2022-12-16T22:06:49.325Z,24.77
2022-12-16T22:12:11.317Z,25.23
2022-12-16T22:17:34.221Z,25.92
2022-12-16T22:22:56.249Z,27.10
2022-12-16T22:28:19.223Z,25.63
2022-12-16T22:33:42.295Z,28.50
2022-12-16T22:39:04.137Z,25.90
2022-12-16T22:44:26.752Z,29.23
2022-12-16T22:49:49.574Z,26.23
2022-12-16T22:55:11.353Z,24.60
2022-12-16T23:00:34.177Z,27.98
2022-12-16T23:05:57.003Z,29.52
2022-12-16T23:11:18.717Z,29.27
2022-12-16T23:16:40.293Z,28.92
2022-12-16T23:22:03.294Z,32.13
2022-12-16T23:27:25.014Z,29.67
2022-12-16T23:32:49.739Z,28.77
2022-12-16T23:38:18.549Z,26.70
2022-12-16T23:43:40.599Z,31.98
2022-12-16T23:49:02.530Z,27.05
2022-12-16T23:54:25.330Z,27.00
2022-12-16T23:59:46.905Z,24.13
